Time;durP1;ratioP1;P1;durP2;ratioP2;P2;SDS_P1;SDS_P2;PMS_P1;PMS_P2;Temp;Humidity;BMP_temperature;BMP_pressure;BME280_temperature;BME280_humidity;BME280_pressure;Samples;Min_cycle;Max_cycle;Signal;HPM_P1;HPM_P2
2022/08/07 00:00:54;;;;;;;11.02;8.18;;;;;;;;;;10141763;28;20080;-61
2022/08/07 00:05:56;;;;;;;9.20;8.25;;;;;;;;;;10140980;28;20074;-60
2022/08/07 00:10:56;;;;;;;10.60;7.18;;;;;;;;;;10141292;28;20074;-61
2022/08/07 00:15:57;;;;;;;9.80;7.78;;;;;;;;;;10140799;28;20070;-60
2022/08/07 00:20:57;;;;;;;8.93;7.13;;;;;;;;;;10141534;28;20086;-60
2022/08/07 00:26:00;;;;;;;11.05;7.60;;;;;;;;;;10140595;28;20062;-60
2022/08/07 00:31:16;;;;;;;8.05;7.35;;;;;;;;;;10139820;28;20073;-60
2022/08/07 00:36:15;;;;;;;8.70;7.93;;;;;;;;;;10139481;28;20043;-60
2022/08/07 00:41:14;;;;;;;8.82;8.05;;;;;;;;;;10136506;28;20089;-61
2022/08/07 00:46:12;;;;;;;11.68;8.15;;;;;;;;;;10129845;28;20051;-61
2022/08/07 00:51:13;;;;;;;12.77;8.13;;;;;;;;;;10132974;28;20061;-60
2022/08/07 00:56:14;;;;;;;10.52;7.70;;;;;;;;;;10132479;28;20077;-60
2022/08/07 01:01:12;;;;;;;9.52;7.72;;;;;;;;;;10138583;28;20520;-60
2022/08/07 01:06:11;;;;;;;15.02;8.13;;;;;;;;;;10138508;28;20074;-60
2022/08/07 01:11:10;;;;;;;8.63;7.68;;;;;;;;;;10137796;28;20067;-60
2022/08/07 01:16:29;;;;;;;9.70;8.20;;;;;;;;;;10131975;28;20448;-60
2022/08/07 01:21:30;;;;;;;8.40;7.55;;;;;;;;;;10136823;28;20090;-61
2022/08/07 01:26:34;;;;;;;10.00;7.78;;;;;;;;;;10140283;28;20073;-60
2022/08/07 01:31:34;;;;;;;8.77;7.85;;;;;;;;;;10123278;28;20074;-60
2022/08/07 01:36:44;;;;;;;10.10;8.27;;;;;;;;;;10129674;28;20046;-59
2022/08/07 01:41:55;;;;;;;9.27;8.48;;;;;;;;;;10138216;28;20515;-59
2022/08/07 01:47:13;;;;;;;13.32;8.18;;;;;;;;;;10134774;28;20116;-60
2022/08/07 01:52:34;;;;;;;10.25;8.52;;;;;;;;;;10139735;28;20471;-59
2022/08/07 01:57:35;;;;;;;9.75;7.97;;;;;;;;;;10148826;28;20049;-59
2022/08/07 02:02:54;;;;;;;12.15;7.80;;;;;;;;;;10142870;28;20504;-59
2022/08/07 02:08:17;;;;;;;9.13;7.43;;;;;;;;;;10136162;28;20090;-60
2022/08/07 02:13:16;;;;;;;10.63;7.47;;;;;;;;;;10135599;28;20065;-60
2022/08/07 02:18:22;;;;;;;8.68;7.13;;;;;;;;;;10133484;28;20441;-60
2022/08/07 02:23:29;;;;;;;9.43;6.82;;;;;;;;;;10130306;28;20508;-60
2022/08/07 02:28:33;;;;;;;9.25;6.63;;;;;;;;;;10139411;28;20055;-60
2022/08/07 02:33:36;;;;;;;10.40;7.30;;;;;;;;;;10141872;28;20057;-60
2022/08/07 02:38:57;;;;;;;8.32;6.47;;;;;;;;;;10132846;28;20511;-60
2022/08/07 02:43:59;;;;;;;8.38;7.50;;;;;;;;;;10142561;28;20070;-59
2022/08/07 02:48:57;;;;;;;8.85;7.93;;;;;;;;;;10133057;28;20504;-59
2022/08/07 02:54:02;;;;;;;9.33;8.00;;;;;;;;;;10145105;28;20073;-60
2022/08/07 02:59:04;;;;;;;9.32;7.88;;;;;;;;;;10133342;28;20841;-60
2022/08/07 03:04:05;;;;;;;8.80;8.00;;;;;;;;;;10148013;28;20100;-60
2022/08/07 03:09:13;;;;;;;11.70;8.80;;;;;;;;;;10132423;28;20093;-59
2022/08/07 03:14:34;;;;;;;10.20;8.40;;;;;;;;;;10132086;28;20064;-61
2022/08/07 03:19:34;;;;;;;9.55;7.95;;;;;;;;;;10124534;28;20063;-60
2022/08/07 03:24:38;;;;;;;10.48;8.40;;;;;;;;;;10127806;28;20469;-60
2022/08/07 03:29:44;;;;;;;9.20;8.30;;;;;;;;;;10143514;28;20055;-59
2022/08/07 03:34:53;;;;;;;10.00;8.98;;;;;;;;;;10152792;28;20328;-59
2022/08/07 03:40:14;;;;;;;9.07;8.18;;;;;;;;;;10138794;28;20093;-59
2022/08/07 03:45:15;;;;;;;8.50;7.70;;;;;;;;;;10131289;28;20058;-59
2022/08/07 03:50:34;;;;;;;9.35;8.43;;;;;;;;;;10131723;28;20051;-60
2022/08/07 03:55:35;;;;;;;8.82;8.10;;;;;;;;;;10134749;28;20420;-60
2022/08/07 04:00:54;;;;;;;10.40;8.65;;;;;;;;;;10133058;28;20085;-60
2022/08/07 04:05:58;;;;;;;11.02;9.27;;;;;;;;;;10141115;28;20050;-60
2022/08/07 04:10:59;;;;;;;13.45;9.20;;;;;;;;;;10140991;28;20078;-60
2022/08/07 04:16:17;;;;;;;12.10;8.70;;;;;;;;;;10140343;28;20444;-60
2022/08/07 04:21:29;;;;;;;12.13;9.57;;;;;;;;;;10141993;28;20578;-60
2022/08/07 04:26:31;;;;;;;12.60;9.25;;;;;;;;;;10134057;28;20247;-60
2022/08/07 04:31:31;;;;;;;12.90;8.85;;;;;;;;;;10141537;28;20055;-60
2022/08/07 04:36:50;;;;;;;10.95;9.55;;;;;;;;;;10134545;28;20183;-60
2022/08/07 04:41:50;;;;;;;12.00;10.48;;;;;;;;;;10137812;28;20070;-60
2022/08/07 04:46:54;;;;;;;14.38;10.07;;;;;;;;;;10137751;28;20067;-60
2022/08/07 04:52:13;;;;;;;10.73;9.45;;;;;;;;;;10137246;28;20500;-60
2022/08/07 04:57:23;;;;;;;14.60;9.68;;;;;;;;;;10136138;28;20046;-60
2022/08/07 05:02:45;;;;;;;15.25;10.57;;;;;;;;;;10140033;28;20054;-60
2022/08/07 05:07:52;;;;;;;14.48;11.00;;;;;;;;;;10137888;28;20153;-61
2022/08/07 05:12:57;;;;;;;11.80;9.80;;;;;;;;;;10134196;28;20112;-60
2022/08/07 05:18:20;;;;;;;15.17;11.20;;;;;;;;;;10151863;28;20054;-60
2022/08/07 05:23:20;;;;;;;18.00;11.88;;;;;;;;;;10146876;28;20479;-60
2022/08/07 05:28:30;;;;;;;10.85;9.77;;;;;;;;;;10150840;28;20042;-60
2022/08/07 05:33:28;;;;;;;13.02;9.88;;;;;;;;;;10165564;28;20081;-60
2022/08/07 05:38:28;;;;;;;14.15;10.23;;;;;;;;;;10145374;28;20069;-60
2022/08/07 05:43:49;;;;;;;9.93;8.80;;;;;;;;;;10149930;28;20351;-60
2022/08/07 05:49:08;;;;;;;10.82;9.68;;;;;;;;;;10149611;28;20465;-61
2022/08/07 05:54:12;;;;;;;14.32;9.07;;;;;;;;;;10151399;28;20723;-60
2022/08/07 05:59:36;;;;;;;15.30;9.32;;;;;;;;;;10150951;28;20074;-59
2022/08/07 06:04:57;;;;;;;13.57;9.55;;;;;;;;;;10142301;28;20088;-58
2022/08/07 06:09:56;;;;;;;11.35;10.07;;;;;;;;;;10137428;28;20050;-60
2022/08/07 06:15:06;;;;;;;11.10;9.73;;;;;;;;;;10137678;28;20069;-60
2022/08/07 06:20:06;;;;;;;13.70;9.48;;;;;;;;;;10142082;28;20083;-60
2022/08/07 06:25:23;;;;;;;12.05;8.95;;;;;;;;;;10146139;28;20081;-60
2022/08/07 06:30:27;;;;;;;13.80;8.73;;;;;;;;;;10144479;28;20089;-60
2022/08/07 06:35:42;;;;;;;9.85;8.95;;;;;;;;;;10135906;28;20082;-59
2022/08/07 06:41:02;;;;;;;9.63;8.25;;;;;;;;;;10133755;28;20135;-61
2022/08/07 06:46:06;;;;;;;10.25;8.57;;;;;;;;;;10132109;28;20089;-60
2022/08/07 06:51:12;;;;;;;16.55;8.90;;;;;;;;;;10128594;28;20141;-59
2022/08/07 06:56:14;;;;;;;10.93;8.98;;;;;;;;;;10126535;28;20338;-60
2022/08/07 07:01:17;;;;;;;11.70;8.73;;;;;;;;;;10127089;28;20097;-60
2022/08/07 07:06:16;;;;;;;9.60;8.63;;;;;;;;;;10131340;28;20170;-60
2022/08/07 07:11:25;;;;;;;13.60;8.98;;;;;;;;;;10136893;28;20432;-60
2022/08/07 07:16:45;;;;;;;9.02;8.13;;;;;;;;;;10127773;28;20500;-60
2022/08/07 07:21:53;;;;;;;14.38;8.73;;;;;;;;;;10132316;28;20519;-60
2022/08/07 07:27:10;;;;;;;9.23;8.32;;;;;;;;;;10132127;28;20559;-60
2022/08/07 07:32:12;;;;;;;13.55;8.23;;;;;;;;;;10131767;28;20100;-60
2022/08/07 07:37:11;;;;;;;11.00;8.38;;;;;;;;;;10132231;28;20069;-59
2022/08/07 07:42:30;;;;;;;9.25;7.93;;;;;;;;;;10131019;28;20482;-58
2022/08/07 07:47:34;;;;;;;9.50;8.60;;;;;;;;;;10138879;28;20244;-60
2022/08/07 07:52:51;;;;;;;9.45;8.50;;;;;;;;;;10140377;28;20479;-60
2022/08/07 07:57:50;;;;;;;8.70;7.90;;;;;;;;;;10140861;28;20076;-60
2022/08/07 08:02:58;;;;;;;9.48;7.40;;;;;;;;;;10137262;28;20080;-59
2022/08/07 08:08:03;;;;;;;8.20;6.50;;;;;;;;;;10137517;28;20070;-59
2022/08/07 08:13:02;;;;;;;9.57;8.60;;;;;;;;;;10137391;28;20519;-60
2022/08/07 08:18:03;;;;;;;10.00;8.38;;;;;;;;;;10137942;28;20089;-60
2022/08/07 08:28:35;;;;;;;8.32;7.50;;;;;;;;;;10136476;28;20471;-60
2022/08/07 08:33:36;;;;;;;9.98;7.70;;;;;;;;;;10137179;28;20062;-60
2022/08/07 08:38:37;;;;;;;7.72;6.97;;;;;;;;;;10138056;28;20150;-60
2022/08/07 08:43:44;;;;;;;10.23;6.90;;;;;;;;;;10136232;28;20516;-60
2022/08/07 08:49:01;;;;;;;8.25;7.55;;;;;;;;;;10149905;28;20500;-60
2022/08/07 08:54:04;;;;;;;9.27;8.18;;;;;;;;;;10142652;28;20070;-60
2022/08/07 08:59:05;;;;;;;11.98;9.25;;;;;;;;;;10133206;28;20524;-60
2022/08/07 09:04:18;;;;;;;10.27;9.27;;;;;;;;;;10140232;28;20073;-59
2022/08/07 09:09:42;;;;;;;9.30;8.50;;;;;;;;;;10144809;28;20117;-61
2022/08/07 09:14:45;;;;;;;10.52;9.52;;;;;;;;;;10129173;28;20086;-59
2022/08/07 09:19:55;;;;;;;8.70;7.03;;;;;;;;;;10131946;28;20076;-60
2022/08/07 09:24:58;;;;;;;9.32;7.88;;;;;;;;;;10141937;28;20069;-60
2022/08/07 09:30:13;;;;;;;9.75;8.60;;;;;;;;;;10151063;28;20078;-59
2022/08/07 09:35:21;;;;;;;8.65;7.85;;;;;;;;;;10143292;28;20092;-60
2022/08/07 09:40:50;;;;;;;9.82;7.75;;;;;;;;;;10144596;28;20510;-60
2022/08/07 09:45:57;;;;;;;13.85;9.40;;;;;;;;;;10150220;28;20065;-61
2022/08/07 09:51:26;;;;;;;8.93;8.13;;;;;;;;;;10139392;28;20475;-57
2022/08/07 09:57:05;;;;;;;9.48;8.55;;;;;;;;;;10143611;28;20070;-58
2022/08/07 10:02:22;;;;;;;10.18;8.32;;;;;;;;;;10133024;28;20074;-59
2022/08/07 10:07:47;;;;;;;12.30;7.00;;;;;;;;;;10134657;28;20097;-58
2022/08/07 10:13:15;;;;;;;7.40;6.80;;;;;;;;;;10130684;28;20488;-58
2022/08/07 10:18:42;;;;;;;14.50;6.35;;;;;;;;;;10123577;28;20109;-60
2022/08/07 10:23:46;;;;;;;9.20;6.82;;;;;;;;;;10134340;28;20110;-59
2022/08/07 10:29:11;;;;;;;8.53;6.73;;;;;;;;;;10142940;28;20069;-58
2022/08/07 10:34:19;;;;;;;7.95;5.72;;;;;;;;;;10134590;28;20523;-58
2022/08/07 10:39:36;;;;;;;6.82;6.18;;;;;;;;;;10128343;28;20077;-60
2022/08/07 10:44:58;;;;;;;6.53;5.30;;;;;;;;;;10133755;28;20741;-60
2022/08/07 10:50:03;;;;;;;8.57;6.00;;;;;;;;;;10133717;28;20096;-59
2022/08/07 10:55:07;;;;;;;8.15;5.70;;;;;;;;;;10133566;28;20085;-59
2022/08/07 11:00:29;;;;;;;8.10;4.90;;;;;;;;;;10134224;28;20546;-59
2022/08/07 11:05:45;;;;;;;9.05;6.40;;;;;;;;;;10137821;28;20519;-58
2022/08/07 11:10:50;;;;;;;6.68;5.93;;;;;;;;;;10147214;28;20073;-58
2022/08/07 11:15:59;;;;;;;6.70;5.03;;;;;;;;;;10160064;28;20485;-59
2022/08/07 11:21:04;;;;;;;9.70;5.30;;;;;;;;;;10148964;28;20091;-58
2022/08/07 11:26:06;;;;;;;8.52;5.72;;;;;;;;;;10152848;28;20082;-59
2022/08/07 11:31:13;;;;;;;9.63;5.43;;;;;;;;;;10152035;28;20066;-58
2022/08/07 11:36:18;;;;;;;6.18;5.60;;;;;;;;;;10154213;28;20363;-59
2022/08/07 11:41:23;;;;;;;5.97;5.38;;;;;;;;;;10150002;28;20082;-59
2022/08/07 11:46:48;;;;;;;10.27;5.82;;;;;;;;;;10147007;28;20141;-60
2022/08/07 11:51:55;;;;;;;7.60;5.60;;;;;;;;;;10153231;28;20069;-59
2022/08/07 11:57:03;;;;;;;7.70;3.95;;;;;;;;;;10148707;28;20540;-59
2022/08/07 12:02:09;;;;;;;6.22;4.47;;;;;;;;;;10151348;28;20173;-59
2022/08/07 12:07:23;;;;;;;7.90;4.05;;;;;;;;;;10146229;28;20432;-58
2022/08/07 12:12:27;;;;;;;5.93;3.97;;;;;;;;;;10151201;28;20081;-58
2022/08/07 12:17:29;;;;;;;9.52;4.80;;;;;;;;;;10150048;28;20112;-60
2022/08/07 12:22:38;;;;;;;7.30;5.07;;;;;;;;;;10151241;28;20124;-59
2022/08/07 12:27:59;;;;;;;7.32;5.15;;;;;;;;;;10145888;28;20576;-59
2022/08/07 12:33:11;;;;;;;6.72;5.07;;;;;;;;;;10148865;28;20066;-59
2022/08/07 12:38:26;;;;;;;6.10;5.50;;;;;;;;;;10152279;28;20464;-59
2022/08/07 12:43:40;;;;;;;9.18;5.00;;;;;;;;;;10151874;28;20070;-59
2022/08/07 12:49:02;;;;;;;6.40;5.03;;;;;;;;;;10150747;28;20791;-60
2022/08/07 12:54:25;;;;;;;5.38;4.80;;;;;;;;;;10150969;28;20069;-59
2022/08/07 12:59:36;;;;;;;7.53;5.07;;;;;;;;;;10150916;28;20123;-58
2022/08/07 13:05:01;;;;;;;9.43;6.38;;;;;;;;;;10149730;28;20073;-58
2022/08/07 13:10:23;;;;;;;8.18;4.82;;;;;;;;;;10140034;28;20070;-59
2022/08/07 13:15:42;;;;;;;9.98;5.65;;;;;;;;;;10149560;28;20106;-59
2022/08/07 13:20:43;;;;;;;6.50;4.50;;;;;;;;;;10146470;28;20165;-59
2022/08/07 13:25:45;;;;;;;9.77;5.70;;;;;;;;;;10145762;28;20070;-59
2022/08/07 13:30:54;;;;;;;9.35;5.20;;;;;;;;;;10148615;28;20070;-59
2022/08/07 13:36:01;;;;;;;8.13;4.15;;;;;;;;;;10149965;28;20082;-59
2022/08/07 13:41:06;;;;;;;5.38;4.20;;;;;;;;;;10142981;28;20072;-59
2022/08/07 13:46:06;;;;;;;5.63;4.68;;;;;;;;;;10144183;28;20078;-60
2022/08/07 13:51:25;;;;;;;8.00;4.60;;;;;;;;;;10150390;28;20058;-59
2022/08/07 13:56:46;;;;;;;7.70;4.82;;;;;;;;;;10145850;28;20093;-58
2022/08/07 14:01:53;;;;;;;7.20;3.72;;;;;;;;;;10148789;28;20073;-59
2022/08/07 14:07:05;;;;;;;4.70;3.97;;;;;;;;;;10148334;28;20089;-58
2022/08/07 14:12:10;;;;;;;5.35;3.78;;;;;;;;;;10149034;28;20078;-59
2022/08/07 14:17:11;;;;;;;5.65;3.88;;;;;;;;;;10147075;28;20150;-59
2022/08/07 14:22:32;;;;;;;7.55;4.65;;;;;;;;;;10147084;28;20082;-58
2022/08/07 14:27:36;;;;;;;4.93;4.00;;;;;;;;;;10146375;28;20084;-59
2022/08/07 14:32:55;;;;;;;6.85;3.85;;;;;;;;;;10148797;28;20086;-59
2022/08/07 14:37:55;;;;;;;4.82;3.88;;;;;;;;;;10144973;28;20918;-59
2022/08/07 14:43:05;;;;;;;4.65;3.92;;;;;;;;;;10145536;28;20492;-58
2022/08/07 14:48:26;;;;;;;8.82;3.65;;;;;;;;;;10147666;28;20073;-58
2022/08/07 14:53:33;;;;;;;7.35;3.85;;;;;;;;;;10142453;28;20066;-59
2022/08/07 14:58:54;;;;;;;6.88;4.93;;;;;;;;;;10146605;28;20077;-59
2022/08/07 15:03:52;;;;;;;14.73;3.90;;;;;;;;;;10145767;28;20078;-58
2022/08/07 15:08:51;;;;;;;6.25;3.70;;;;;;;;;;10147667;28;20534;-59
2022/08/07 15:13:56;;;;;;;5.35;3.70;;;;;;;;;;10145744;28;20072;-59
2022/08/07 15:18:54;;;;;;;;;;;;;;;;;;10145116;28;20089;-59
2022/08/07 15:23:55;;;;;;;4.45;3.95;;;;;;;;;;10147919;28;19971;-61
2022/08/07 15:29:17;;;;;;;5.97;3.72;;;;;;;;;;10147157;28;20096;-60
2022/08/07 15:34:37;;;;;;;5.25;3.35;;;;;;;;;;10140248;28;20206;-59
2022/08/07 15:39:49;;;;;;;3.85;2.72;;;;;;;;;;10148164;28;20461;-59
2022/08/07 15:45:12;;;;;;;4.88;4.00;;;;;;;;;;10144727;28;20563;-59
2022/08/07 15:50:17;;;;;;;3.65;3.33;;;;;;;;;;10144544;28;20073;-59
2022/08/07 15:55:36;;;;;;;6.35;3.55;;;;;;;;;;10142926;28;20098;-59
2022/08/07 16:00:56;;;;;;;6.03;3.40;;;;;;;;;;10142888;28;20089;-59
2022/08/07 16:05:54;;;;;;;5.32;4.35;;;;;;;;;;10149769;28;20076;-59
2022/08/07 16:10:55;;;;;;;7.72;3.88;;;;;;;;;;10146176;28;20077;-60
2022/08/07 16:16:00;;;;;;;5.45;4.32;;;;;;;;;;10145015;28;20476;-59
2022/08/07 16:21:08;;;;;;;7.63;4.13;;;;;;;;;;10145430;28;20086;-58
2022/08/07 16:26:44;;;;;;;8.43;7.07;;;;;;;;;;10139479;28;20078;-59
2022/08/07 16:31:59;;;;;;;8.65;4.93;;;;;;;;;;10133452;28;20070;-60
2022/08/07 16:37:13;;;;;;;4.85;3.63;;;;;;;;;;10150507;28;20515;-59
2022/08/07 16:42:46;;;;;;;4.30;3.47;;;;;;;;;;10120763;28;20074;-59
2022/08/07 16:48:00;;;;;;;5.18;3.55;;;;;;;;;;10137481;28;20090;-58
2022/08/07 16:53:20;;;;;;;9.60;4.10;;;;;;;;;;10142177;28;20082;-59
2022/08/07 16:58:46;;;;;;;6.90;5.47;;;;;;;;;;10116934;28;20081;-60
2022/08/07 17:04:10;;;;;;;6.82;4.75;;;;;;;;;;10138740;28;20070;-59
2022/08/07 17:09:13;;;;;;;6.65;4.53;;;;;;;;;;10136827;28;20073;-60
2022/08/07 17:14:35;;;;;;;9.43;4.32;;;;;;;;;;10131739;28;20090;-60
2022/08/07 17:19:39;;;;;;;11.05;7.57;;;;;;;;;;10131606;28;20556;-59
2022/08/07 17:25:05;;;;;;;9.27;4.70;;;;;;;;;;10138966;28;20504;-59
2022/08/07 17:30:06;;;;;;;9.55;4.22;;;;;;;;;;10136877;28;20077;-59
2022/08/07 17:35:20;;;;;;;6.90;4.07;;;;;;;;;;10133607;28;20075;-60
2022/08/07 17:40:43;;;;;;;7.05;4.40;;;;;;;;;;10147083;28;20136;-60
2022/08/07 17:45:51;;;;;;;8.43;4.78;;;;;;;;;;10147629;28;20070;-60
2022/08/07 17:50:54;;;;;;;8.30;5.20;;;;;;;;;;10144354;28;20073;-59
2022/08/07 17:55:58;;;;;;;7.90;4.18;;;;;;;;;;10150718;28;20070;-60
2022/08/07 18:01:08;;;;;;;5.00;4.07;;;;;;;;;;10148121;28;20083;-59
2022/08/07 18:06:25;;;;;;;8.13;4.32;;;;;;;;;;10149319;28;20070;-58
2022/08/07 18:11:40;;;;;;;6.15;4.57;;;;;;;;;;10152163;28;20074;-55
2022/08/07 18:16:59;;;;;;;9.25;4.70;;;;;;;;;;10147628;28;20062;-58
2022/08/07 18:22:07;;;;;;;6.03;3.80;;;;;;;;;;10148415;28;20457;-56
2022/08/07 18:27:35;;;;;;;7.70;4.10;;;;;;;;;;10145871;28;20086;-57
2022/08/07 18:32:54;;;;;;;10.05;4.85;;;;;;;;;;10127273;28;20074;-58
2022/08/07 18:38:22;;;;;;;5.13;4.63;;;;;;;;;;10136561;28;20621;-54
2022/08/07 18:43:53;;;;;;;5.97;4.20;;;;;;;;;;10135585;28;20090;-57
2022/08/07 18:49:00;;;;;;;7.55;5.07;;;;;;;;;;10130260;28;20074;-57
2022/08/07 18:54:25;;;;;;;7.40;4.18;;;;;;;;;;10145411;28;20074;-58
2022/08/07 18:59:36;;;;;;;5.18;3.80;;;;;;;;;;10146795;28;20090;-58
2022/08/07 19:04:59;;;;;;;10.85;4.25;;;;;;;;;;10148672;28;20129;-58
2022/08/07 19:10:17;;;;;;;7.20;3.47;;;;;;;;;;10145206;28;20073;-59
2022/08/07 19:15:20;;;;;;;6.65;3.97;;;;;;;;;;10141692;28;20074;-58
2022/08/07 19:20:44;;;;;;;7.47;4.05;;;;;;;;;;10145293;28;20081;-58
2022/08/07 19:26:04;;;;;;;6.05;4.03;;;;;;;;;;10143179;28;20081;-59
2022/08/07 19:31:24;;;;;;;6.47;3.53;;;;;;;;;;10147259;28;20070;-59
2022/08/07 19:36:44;;;;;;;5.13;3.00;;;;;;;;;;10147831;28;20078;-59
2022/08/07 19:41:51;;;;;;;4.95;3.33;;;;;;;;;;10148571;28;20074;-58
2022/08/07 19:47:11;;;;;;;11.57;3.33;;;;;;;;;;10140292;28;20093;-59
2022/08/07 19:52:13;;;;;;;7.93;3.25;;;;;;;;;;10140576;28;20074;-59
2022/08/07 19:57:19;;;;;;;3.22;2.95;;;;;;;;;;10146866;28;20493;-59
2022/08/07 20:02:39;;;;;;;8.07;3.30;;;;;;;;;;10141518;28;20050;-59
2022/08/07 20:07:49;;;;;;;6.93;3.13;;;;;;;;;;10145083;28;20101;-58
2022/08/07 20:12:51;;;;;;;5.85;4.15;;;;;;;;;;10155864;28;20107;-59
2022/08/07 20:17:50;;;;;;;4.50;4.10;;;;;;;;;;10142335;28;20076;-59
2022/08/07 20:23:02;;;;;;;7.00;4.25;;;;;;;;;;10152499;28;20535;-59
2022/08/07 20:28:22;;;;;;;5.97;4.68;;;;;;;;;;10154287;28;20086;-59
2022/08/07 20:33:28;;;;;;;10.00;4.00;;;;;;;;;;10149766;28;20066;-60
2022/08/07 20:38:35;;;;;;;9.30;4.70;;;;;;;;;;10154416;28;20073;-59
2022/08/07 20:43:56;;;;;;;5.68;4.07;;;;;;;;;;10155103;28;20086;-59
2022/08/07 20:48:57;;;;;;;7.85;4.70;;;;;;;;;;10152555;28;20527;-58
2022/08/07 20:54:16;;;;;;;6.63;5.03;;;;;;;;;;10153802;28;20184;-60
2022/08/07 20:59:30;;;;;;;;;;;;;;;;;;10149295;28;20085;-58
2022/08/07 21:04:50;;;;;;;9.93;4.82;;;;;;;;;;10150205;28;19969;-60
2022/08/07 21:09:52;;;;;;;8.68;6.03;;;;;;;;;;10148511;28;20089;-58
2022/08/07 21:14:59;;;;;;;11.95;5.22;;;;;;;;;;10142485;28;20057;-59
2022/08/07 21:19:59;;;;;;;6.28;4.38;;;;;;;;;;10134899;28;20074;-59
2022/08/07 21:25:07;;;;;;;7.63;5.40;;;;;;;;;;10150686;28;20074;-59
2022/08/07 21:30:12;;;;;;;7.15;4.88;;;;;;;;;;10151013;28;20089;-59
2022/08/07 21:35:15;;;;;;;9.32;4.53;;;;;;;;;;10142026;28;20076;-59
2022/08/07 21:40:36;;;;;;;6.72;4.85;;;;;;;;;;10137036;28;20472;-59
2022/08/07 21:45:39;;;;;;;6.07;4.53;;;;;;;;;;10137861;28;20089;-59
2022/08/07 21:51:02;;;;;;;8.52;4.78;;;;;;;;;;10137861;28;20066;-59
2022/08/07 21:56:03;;;;;;;10.82;5.15;;;;;;;;;;10140324;28;20127;-59
2022/08/07 22:01:22;;;;;;;7.18;4.35;;;;;;;;;;10140002;28;20465;-59
2022/08/07 22:06:46;;;;;;;8.57;4.75;;;;;;;;;;10130181;28;20077;-60
2022/08/07 22:11:47;;;;;;;6.65;4.55;;;;;;;;;;10135391;28;20073;-57
2022/08/07 22:17:04;;;;;;;7.72;4.68;;;;;;;;;;10135746;28;20469;-59
2022/08/07 22:22:07;;;;;;;7.85;5.07;;;;;;;;;;10134817;28;20069;-58
2022/08/07 22:27:20;;;;;;;4.88;4.38;;;;;;;;;;10121027;28;20586;-58
2022/08/07 22:32:43;;;;;;;6.50;5.28;;;;;;;;;;10132756;28;20464;-58
2022/08/07 22:37:49;;;;;;;9.32;5.40;;;;;;;;;;10135057;28;20468;-58
2022/08/07 22:43:07;;;;;;;7.30;5.25;;;;;;;;;;10133362;28;20077;-59
2022/08/07 22:48:09;;;;;;;7.32;5.90;;;;;;;;;;10134492;28;20481;-59
2022/08/07 22:53:44;;;;;;;7.13;5.00;;;;;;;;;;10130244;28;20084;-60
2022/08/07 22:59:14;;;;;;;7.63;5.28;;;;;;;;;;10134876;28;20082;-58
2022/08/07 23:04:17;;;;;;;5.65;5.15;;;;;;;;;;10148443;28;20072;-59
2022/08/07 23:09:38;;;;;;;5.75;5.15;;;;;;;;;;10145033;28;20465;-61
2022/08/07 23:15:06;;;;;;;7.32;5.35;;;;;;;;;;10135256;28;20085;-58
2022/08/07 23:20:23;;;;;;;5.57;5.00;;;;;;;;;;10133908;28;20149;-59
2022/08/07 23:25:50;;;;;;;11.68;5.53;;;;;;;;;;10134779;28;20089;-59
2022/08/07 23:30:52;;;;;;;6.35;5.50;;;;;;;;;;10139447;28;20069;-58
2022/08/07 23:36:11;;;;;;;6.07;5.50;;;;;;;;;;10139709;28;20047;-59
2022/08/07 23:41:27;;;;;;;8.27;5.35;;;;;;;;;;10135554;28;20086;-59
2022/08/07 23:46:49;;;;;;;7.80;5.25;;;;;;;;;;10134477;28;20069;-59
2022/08/07 23:51:49;;;;;;;7.95;5.88;;;;;;;;;;10128560;28;20067;-59
2022/08/07 23:57:12;;;;;;;6.65;5.05;;;;;;;;;;10131660;28;20058;-58
